sensor_id;sensor_type;location;lat;lon;timestamp;pressure;altitude;pressure_sealevel;temperature;humidity
9740;BME280;4909;42.680;26.324;2023-04-25T00:01:32;97906.13;;;18.17;74.71
9740;BME280;4909;42.680;26.324;2023-04-25T00:04:01;97916.47;;;18.01;78.84
9740;BME280;4909;42.680;26.324;2023-04-25T00:06:28;97906.81;;;18.10;77.50
9740;BME280;4909;42.680;26.324;2023-04-25T00:08:57;97918.38;;;18.61;78.01
9740;BME280;4909;42.680;26.324;2023-04-25T00:11:24;97909.88;;;18.56;76.61
9740;BME280;4909;42.680;26.324;2023-04-25T00:13:50;97916.38;;;18.54;76.45
9740;BME280;4909;42.680;26.324;2023-04-25T00:16:17;97912.03;;;18.42;77.73
9740;BME280;4909;42.680;26.324;2023-04-25T00:18:46;97914.91;;;17.99;76.94
9740;BME280;4909;42.680;26.324;2023-04-25T00:21:17;97916.09;;;18.36;79.00
9740;BME280;4909;42.680;26.324;2023-04-25T00:23:43;97909.34;;;18.62;76.25
9740;BME280;4909;42.680;26.324;2023-04-25T00:26:11;97907.75;;;19.00;75.62
9740;BME280;4909;42.680;26.324;2023-04-25T00:28:39;97904.31;;;18.98;75.99
9740;BME280;4909;42.680;26.324;2023-04-25T00:31:05;97916.13;;;19.06;73.08
9740;BME280;4909;42.680;26.324;2023-04-25T00:33:32;97910.44;;;19.09;73.59
9740;BME280;4909;42.680;26.324;2023-04-25T00:36:01;97913.47;;;19.35;73.77
9740;BME280;4909;42.680;26.324;2023-04-25T00:38:28;97909.75;;;19.17;72.15
9740;BME280;4909;42.680;26.324;2023-04-25T00:40:55;97892.34;;;18.62;74.01
9740;BME280;4909;42.680;26.324;2023-04-25T00:43:23;97893.31;;;18.31;76.00
9740;BME280;4909;42.680;26.324;2023-04-25T00:45:50;97875.91;;;18.55;77.88
9740;BME280;4909;42.680;26.324;2023-04-25T00:48:19;97886.75;;;18.84;75.34
9740;BME280;4909;42.680;26.324;2023-04-25T00:50:51;97881.63;;;18.72;70.63
9740;BME280;4909;42.680;26.324;2023-04-25T00:53:21;97865.81;;;17.87;75.59
9740;BME280;4909;42.680;26.324;2023-04-25T00:55:47;97859.84;;;17.63;79.22
9740;BME280;4909;42.680;26.324;2023-04-25T00:58:16;97857.22;;;17.20;79.22
9740;BME280;4909;42.680;26.324;2023-04-25T01:00:43;97851.41;;;17.47;81.80
9740;BME280;4909;42.680;26.324;2023-04-25T01:03:10;97853.78;;;18.12;79.25
9740;BME280;4909;42.680;26.324;2023-04-25T01:05:37;97853.84;;;18.21;79.07
9740;BME280;4909;42.680;26.324;2023-04-25T01:08:05;97846.50;;;18.54;76.79
9740;BME280;4909;42.680;26.324;2023-04-25T01:10:33;97840.59;;;18.30;74.93
9740;BME280;4909;42.680;26.324;2023-04-25T01:13:00;97841.56;;;17.36;73.32
9740;BME280;4909;42.680;26.324;2023-04-25T01:15:27;97830.59;;;16.53;79.91
9740;BME280;4909;42.680;26.324;2023-04-25T01:17:54;97833.53;;;16.50;85.10
9740;BME280;4909;42.680;26.324;2023-04-25T01:20:22;97815.19;;;16.34;82.38
9740;BME280;4909;42.680;26.324;2023-04-25T01:22:51;97812.75;;;16.31;87.83
9740;BME280;4909;42.680;26.324;2023-04-25T01:25:19;97817.34;;;16.94;83.76
9740;BME280;4909;42.680;26.324;2023-04-25T01:27:47;97807.66;;;17.14;83.05
9740;BME280;4909;42.680;26.324;2023-04-25T01:30:14;97780.84;;;17.35;83.14
9740;BME280;4909;42.680;26.324;2023-04-25T01:32:41;97810.81;;;17.81;81.05
9740;BME280;4909;42.680;26.324;2023-04-25T01:35:11;97792.19;;;17.59;80.99
9740;BME280;4909;42.680;26.324;2023-04-25T01:37:38;97809.03;;;18.22;80.28
9740;BME280;4909;42.680;26.324;2023-04-25T01:40:08;97798.50;;;18.49;76.55
9740;BME280;4909;42.680;26.324;2023-04-25T01:42:37;97803.78;;;18.60;76.25
9740;BME280;4909;42.680;26.324;2023-04-25T01:45:06;97808.09;;;18.82;75.45
9740;BME280;4909;42.680;26.324;2023-04-25T01:47:33;97817.03;;;18.92;74.91
9740;BME280;4909;42.680;26.324;2023-04-25T01:50:00;97821.69;;;19.00;74.31
9740;BME280;4909;42.680;26.324;2023-04-25T01:52:27;97817.16;;;18.91;74.65
9740;BME280;4909;42.680;26.324;2023-04-25T01:54:54;97821.53;;;18.92;73.01
9740;BME280;4909;42.680;26.324;2023-04-25T01:57:22;97812.22;;;18.46;73.24
9740;BME280;4909;42.680;26.324;2023-04-25T01:59:50;97784.16;;;18.20;75.92
9740;BME280;4909;42.680;26.324;2023-04-25T02:02:17;97812.06;;;18.08;73.94
9740;BME280;4909;42.680;26.324;2023-04-25T02:04:43;97800.28;;;17.69;74.85
9740;BME280;4909;42.680;26.324;2023-04-25T02:07:10;97789.22;;;17.62;79.42
9740;BME280;4909;42.680;26.324;2023-04-25T02:09:37;97804.47;;;18.13;77.34
9740;BME280;4909;42.680;26.324;2023-04-25T02:12:04;97797.66;;;18.09;74.12
9740;BME280;4909;42.680;26.324;2023-04-25T02:14:32;97795.94;;;17.98;76.12
9740;BME280;4909;42.680;26.324;2023-04-25T02:16:59;97799.94;;;18.13;76.00
9740;BME280;4909;42.680;26.324;2023-04-25T02:19:26;97778.25;;;17.65;73.85
9740;BME280;4909;42.680;26.324;2023-04-25T02:21:52;97780.84;;;17.35;76.38
9740;BME280;4909;42.680;26.324;2023-04-25T02:24:19;97780.81;;;16.93;78.66
9740;BME280;4909;42.680;26.324;2023-04-25T02:26:46;97782.97;;;17.00;80.99
9740;BME280;4909;42.680;26.324;2023-04-25T02:29:14;97768.94;;;17.49;80.35
9740;BME280;4909;42.680;26.324;2023-04-25T02:31:42;97762.50;;;17.81;78.47
9740;BME280;4909;42.680;26.324;2023-04-25T02:34:09;97763.06;;;18.15;76.92
9740;BME280;4909;42.680;26.324;2023-04-25T02:36:36;97750.38;;;18.27;74.82
9740;BME280;4909;42.680;26.324;2023-04-25T02:39:02;97756.50;;;18.39;75.21
9740;BME280;4909;42.680;26.324;2023-04-25T02:41:30;97750.53;;;18.45;75.73
9740;BME280;4909;42.680;26.324;2023-04-25T02:43:57;97759.53;;;18.84;74.29
9740;BME280;4909;42.680;26.324;2023-04-25T02:46:23;97750.47;;;18.65;72.63
9740;BME280;4909;42.680;26.324;2023-04-25T02:48:51;97757.00;;;18.63;73.59
9740;BME280;4909;42.680;26.324;2023-04-25T02:51:18;97759.69;;;18.82;72.80
9740;BME280;4909;42.680;26.324;2023-04-25T02:53:45;97762.94;;;18.66;72.64
9740;BME280;4909;42.680;26.324;2023-04-25T02:56:12;97755.09;;;18.44;71.77
9740;BME280;4909;42.680;26.324;2023-04-25T02:58:39;97761.16;;;18.46;75.24
9740;BME280;4909;42.680;26.324;2023-04-25T03:01:05;97772.34;;;18.51;73.23
9740;BME280;4909;42.680;26.324;2023-04-25T03:03:32;97776.50;;;18.25;72.73
9740;BME280;4909;42.680;26.324;2023-04-25T03:06:00;97787.44;;;18.33;74.75
9740;BME280;4909;42.680;26.324;2023-04-25T03:08:27;97775.03;;;18.51;74.00
9740;BME280;4909;42.680;26.324;2023-04-25T03:10:57;97792.63;;;18.65;72.55
9740;BME280;4909;42.680;26.324;2023-04-25T03:13:24;97796.13;;;18.16;69.28
9740;BME280;4909;42.680;26.324;2023-04-25T03:15:52;97795.47;;;17.93;71.94
9740;BME280;4909;42.680;26.324;2023-04-25T03:18:19;97800.41;;;17.88;77.47
9740;BME280;4909;42.680;26.324;2023-04-25T03:20:46;97801.81;;;18.22;76.72
9740;BME280;4909;42.680;26.324;2023-04-25T03:23:14;97798.38;;;18.51;75.11
9740;BME280;4909;42.680;26.324;2023-04-25T03:25:41;97780.03;;;18.56;73.23
9740;BME280;4909;42.680;26.324;2023-04-25T03:28:08;97766.59;;;18.65;72.36
9740;BME280;4909;42.680;26.324;2023-04-25T03:30:35;97793.63;;;18.93;72.25
9740;BME280;4909;42.680;26.324;2023-04-25T03:33:02;97790.56;;;19.07;71.55
9740;BME280;4909;42.680;26.324;2023-04-25T03:35:28;97777.38;;;19.04;69.48
9740;BME280;4909;42.680;26.324;2023-04-25T03:37:55;97794.38;;;18.95;71.34
9740;BME280;4909;42.680;26.324;2023-04-25T03:40:23;97783.72;;;18.74;70.16
9740;BME280;4909;42.680;26.324;2023-04-25T03:42:50;97795.94;;;18.78;71.81
9740;BME280;4909;42.680;26.324;2023-04-25T03:45:17;97793.69;;;18.43;69.59
9740;BME280;4909;42.680;26.324;2023-04-25T03:47:44;97799.34;;;18.50;74.78
9740;BME280;4909;42.680;26.324;2023-04-25T03:50:10;97790.09;;;18.23;74.05
9740;BME280;4909;42.680;26.324;2023-04-25T03:52:37;97780.75;;;18.18;73.17
9740;BME280;4909;42.680;26.324;2023-04-25T03:55:05;97791.13;;;18.02;74.87
9740;BME280;4909;42.680;26.324;2023-04-25T03:57:33;97786.56;;;18.23;75.23
9740;BME280;4909;42.680;26.324;2023-04-25T04:00:00;97798.47;;;18.40;75.17
9740;BME280;4909;42.680;26.324;2023-04-25T04:02:27;97799.97;;;18.53;73.51
9740;BME280;4909;42.680;26.324;2023-04-25T04:04:53;97803.28;;;18.06;73.55
9740;BME280;4909;42.680;26.324;2023-04-25T04:07:21;97800.41;;;17.88;74.45
9740;BME280;4909;42.680;26.324;2023-04-25T04:09:48;97805.91;;;17.45;76.34
9740;BME280;4909;42.680;26.324;2023-04-25T04:12:14;97804.50;;;17.92;76.60
9740;BME280;4909;42.680;26.324;2023-04-25T04:14:42;97802.56;;;18.34;75.46
9740;BME280;4909;42.680;26.324;2023-04-25T04:17:09;97802.44;;;18.45;73.58
9740;BME280;4909;42.680;26.324;2023-04-25T04:19:36;97804.09;;;18.57;73.78
9740;BME280;4909;42.680;26.324;2023-04-25T04:22:03;97807.50;;;18.79;72.66
9740;BME280;4909;42.680;26.324;2023-04-25T04:24:29;97815.31;;;18.82;72.30
9740;BME280;4909;42.680;26.324;2023-04-25T04:26:56;97794.34;;;18.85;72.87
9740;BME280;4909;42.680;26.324;2023-04-25T04:29:24;97814.34;;;18.92;71.02
9740;BME280;4909;42.680;26.324;2023-04-25T04:31:52;97811.84;;;18.20;65.25
9740;BME280;4909;42.680;26.324;2023-04-25T04:34:19;97808.81;;;18.35;73.25
9740;BME280;4909;42.680;26.324;2023-04-25T04:36:46;97811.94;;;18.49;74.01
9740;BME280;4909;42.680;26.324;2023-04-25T04:39:13;97811.19;;;18.28;72.29
9740;BME280;4909;42.680;26.324;2023-04-25T04:41:40;97796.59;;;17.08;68.55
9740;BME280;4909;42.680;26.324;2023-04-25T04:44:08;97809.91;;;16.55;70.23
9740;BME280;4909;42.680;26.324;2023-04-25T04:46:35;97805.94;;;15.72;73.86
9740;BME280;4909;42.680;26.324;2023-04-25T04:49:07;97800.72;;;15.24;75.75
9740;BME280;4909;42.680;26.324;2023-04-25T04:51:34;97807.28;;;15.20;81.19
9740;BME280;4909;42.680;26.324;2023-04-25T04:54:02;97796.22;;;15.36;79.47
9740;BME280;4909;42.680;26.324;2023-04-25T04:56:29;97786.47;;;15.70;80.69
9740;BME280;4909;42.680;26.324;2023-04-25T04:58:57;97778.31;;;15.93;81.08
9740;BME280;4909;42.680;26.324;2023-04-25T05:01:24;97783.09;;;16.66;79.25
9740;BME280;4909;42.680;26.324;2023-04-25T05:03:51;97764.66;;;16.84;75.03
9740;BME280;4909;42.680;26.324;2023-04-25T05:06:19;97785.81;;;16.98;75.27
9740;BME280;4909;42.680;26.324;2023-04-25T05:08:46;97758.56;;;16.82;73.07
9740;BME280;4909;42.680;26.324;2023-04-25T05:11:13;97779.47;;;16.99;74.94
9740;BME280;4909;42.680;26.324;2023-04-25T05:13:39;97774.66;;;16.82;76.54
9740;BME280;4909;42.680;26.324;2023-04-25T05:16:06;97758.34;;;17.26;78.78
9740;BME280;4909;42.680;26.324;2023-04-25T05:18:33;97773.59;;;17.67;76.42
9740;BME280;4909;42.680;26.324;2023-04-25T05:21:00;97768.50;;;17.64;72.67
9740;BME280;4909;42.680;26.324;2023-04-25T05:23:28;97771.09;;;17.75;72.06
9740;BME280;4909;42.680;26.324;2023-04-25T05:25:55;97760.28;;;17.96;75.15
9740;BME280;4909;42.680;26.324;2023-04-25T05:28:22;97763.69;;;18.29;74.20
9740;BME280;4909;42.680;26.324;2023-04-25T05:30:49;97767.88;;;18.61;73.20
9740;BME280;4909;42.680;26.324;2023-04-25T05:33:16;97765.28;;;18.50;70.90
9740;BME280;4909;42.680;26.324;2023-04-25T05:35:42;97769.22;;;18.46;68.54
9740;BME280;4909;42.680;26.324;2023-04-25T05:38:09;97763.47;;;17.71;67.14
9740;BME280;4909;42.680;26.324;2023-04-25T05:40:37;97760.16;;;17.67;77.10
9740;BME280;4909;42.680;26.324;2023-04-25T05:43:04;97755.69;;;18.08;77.41
9740;BME280;4909;42.680;26.324;2023-04-25T05:45:31;97771.13;;;18.25;69.67
9740;BME280;4909;42.680;26.324;2023-04-25T05:47:58;97756.66;;;17.67;69.27
9740;BME280;4909;42.680;26.324;2023-04-25T05:50:24;97760.69;;;16.99;69.62
9740;BME280;4909;42.680;26.324;2023-04-25T05:52:51;97761.06;;;16.51;72.76
9740;BME280;4909;42.680;26.324;2023-04-25T05:55:18;97760.22;;;16.51;80.62
9740;BME280;4909;42.680;26.324;2023-04-25T05:57:46;97744.53;;;17.10;82.78
9740;BME280;4909;42.680;26.324;2023-04-25T06:00:14;97747.00;;;17.85;79.40
9740;BME280;4909;42.680;26.324;2023-04-25T06:02:41;97745.97;;;18.26;75.83
9740;BME280;4909;42.680;26.324;2023-04-25T06:05:08;97752.34;;;17.85;68.28
9740;BME280;4909;42.680;26.324;2023-04-25T06:07:35;97740.41;;;17.68;69.08
9740;BME280;4909;42.680;26.324;2023-04-25T06:10:02;97748.94;;;17.32;69.09
9740;BME280;4909;42.680;26.324;2023-04-25T06:12:31;97751.72;;;16.89;71.93
9740;BME280;4909;42.680;26.324;2023-04-25T06:14:59;97750.81;;;16.79;75.80
9740;BME280;4909;42.680;26.324;2023-04-25T06:17:26;97746.34;;;16.68;81.99
9740;BME280;4909;42.680;26.324;2023-04-25T06:19:53;97749.19;;;17.50;78.76
9740;BME280;4909;42.680;26.324;2023-04-25T06:22:20;97757.94;;;17.72;77.39
9740;BME280;4909;42.680;26.324;2023-04-25T06:24:46;97755.03;;;18.25;77.21
9740;BME280;4909;42.680;26.324;2023-04-25T06:27:13;97731.44;;;18.29;73.66
9740;BME280;4909;42.680;26.324;2023-04-25T06:29:40;97743.06;;;18.39;75.66
9740;BME280;4909;42.680;26.324;2023-04-25T06:32:08;97747.59;;;18.38;74.36
9740;BME280;4909;42.680;26.324;2023-04-25T06:34:35;97755.28;;;18.62;72.55
9740;BME280;4909;42.680;26.324;2023-04-25T06:37:01;97752.78;;;18.30;68.95
9740;BME280;4909;42.680;26.324;2023-04-25T06:39:28;97761.16;;;18.37;73.84
9740;BME280;4909;42.680;26.324;2023-04-25T06:41:55;97753.84;;;18.08;70.49
9740;BME280;4909;42.680;26.324;2023-04-25T06:44:22;97742.84;;;18.21;74.94
9740;BME280;4909;42.680;26.324;2023-04-25T06:46:51;97750.78;;;18.22;72.70
9740;BME280;4909;42.680;26.324;2023-04-25T06:49:19;97763.06;;;18.15;72.13
9740;BME280;4909;42.680;26.324;2023-04-25T06:51:46;97765.13;;;18.02;71.78
9740;BME280;4909;42.680;26.324;2023-04-25T06:54:13;97758.94;;;17.51;71.15
9740;BME280;4909;42.680;26.324;2023-04-25T06:56:40;97760.16;;;16.84;74.21
9740;BME280;4909;42.680;26.324;2023-04-25T06:59:07;97767.06;;;16.55;76.07
9740;BME280;4909;42.680;26.324;2023-04-25T07:01:34;97764.91;;;16.81;76.92
9740;BME280;4909;42.680;26.324;2023-04-25T07:04:01;97748.81;;;17.13;77.66
9740;BME280;4909;42.680;26.324;2023-04-25T07:06:29;97754.59;;;17.38;76.36
9740;BME280;4909;42.680;26.324;2023-04-25T07:08:56;97763.03;;;17.34;72.58
9740;BME280;4909;42.680;26.324;2023-04-25T07:11:23;97766.34;;;17.17;73.77
9740;BME280;4909;42.680;26.324;2023-04-25T07:13:50;97764.34;;;16.66;74.31
9740;BME280;4909;42.680;26.324;2023-04-25T07:16:17;97757.25;;;16.22;77.53
9740;BME280;4909;42.680;26.324;2023-04-25T07:18:43;97766.06;;;16.56;79.60
9740;BME280;4909;42.680;26.324;2023-04-25T07:21:10;97767.03;;;16.98;78.19
9740;BME280;4909;42.680;26.324;2023-04-25T07:23:38;97717.72;;;16.69;75.43
9740;BME280;4909;42.680;26.324;2023-04-25T07:26:06;97763.00;;;17.04;78.49
9740;BME280;4909;42.680;26.324;2023-04-25T07:28:33;97769.28;;;16.82;78.08
9740;BME280;4909;42.680;26.324;2023-04-25T07:30:59;97761.38;;;16.80;76.45
9740;BME280;4909;42.680;26.324;2023-04-25T07:33:27;97753.44;;;17.11;77.88
9740;BME280;4909;42.680;26.324;2023-04-25T07:35:54;97753.09;;;17.46;77.51
9740;BME280;4909;42.680;26.324;2023-04-25T07:38:21;97767.81;;;18.02;74.61
9740;BME280;4909;42.680;26.324;2023-04-25T07:40:49;97766.25;;;18.49;72.82
9740;BME280;4909;42.680;26.324;2023-04-25T07:43:16;97762.09;;;18.76;71.15
9740;BME280;4909;42.680;26.324;2023-04-25T07:45:42;97763.66;;;18.69;70.66
9740;BME280;4909;42.680;26.324;2023-04-25T07:48:09;97743.97;;;18.58;68.87
9740;BME280;4909;42.680;26.324;2023-04-25T07:50:36;97756.94;;;18.44;68.75
9740;BME280;4909;42.680;26.324;2023-04-25T07:53:03;97743.22;;;18.47;69.38
9740;BME280;4909;42.680;26.324;2023-04-25T07:55:29;97757.34;;;18.39;62.70
9740;BME280;4909;42.680;26.324;2023-04-25T07:57:58;97742.53;;;18.54;69.06
9740;BME280;4909;42.680;26.324;2023-04-25T08:00:24;97737.03;;;18.65;68.18
9740;BME280;4909;42.680;26.324;2023-04-25T08:02:51;97745.25;;;18.83;65.85
9740;BME280;4909;42.680;26.324;2023-04-25T08:05:18;97747.38;;;18.99;64.58
9740;BME280;4909;42.680;26.324;2023-04-25T08:07:44;97750.34;;;19.25;65.89
9740;BME280;4909;42.680;26.324;2023-04-25T08:10:11;97724.91;;;19.66;61.94
9740;BME280;4909;42.680;26.324;2023-04-25T08:12:38;97724.50;;;19.61;59.06
9740;BME280;4909;42.680;26.324;2023-04-25T08:15:08;97719.53;;;19.66;59.53
9740;BME280;4909;42.680;26.324;2023-04-25T08:17:35;97740.44;;;18.96;59.45
9740;BME280;4909;42.680;26.324;2023-04-25T08:20:02;97737.34;;;18.82;60.46
9740;BME280;4909;42.680;26.324;2023-04-25T08:22:31;97732.63;;;18.55;64.98
9740;BME280;4909;42.680;26.324;2023-04-25T08:24:58;97741.84;;;19.29;64.04
9740;BME280;4909;42.680;26.324;2023-04-25T08:27:43;97738.91;;;19.79;60.55
9740;BME280;4909;42.680;26.324;2023-04-25T08:30:11;97730.28;;;20.30;61.36
9740;BME280;4909;42.680;26.324;2023-04-25T08:32:38;97732.66;;;20.43;59.56
9740;BME280;4909;42.680;26.324;2023-04-25T08:35:06;97725.22;;;20.27;59.77
9740;BME280;4909;42.680;26.324;2023-04-25T08:37:33;97726.06;;;20.55;60.96
9740;BME280;4909;42.680;26.324;2023-04-25T08:39:59;97708.19;;;20.26;60.73
9740;BME280;4909;42.680;26.324;2023-04-25T08:42:27;97702.59;;;20.10;62.15
9740;BME280;4909;42.680;26.324;2023-04-25T08:44:55;97701.53;;;20.30;60.76
9740;BME280;4909;42.680;26.324;2023-04-25T08:47:24;97693.31;;;20.67;61.68
9740;BME280;4909;42.680;26.324;2023-04-25T08:49:53;97691.59;;;21.02;60.46
9740;BME280;4909;42.680;26.324;2023-04-25T08:52:22;97696.16;;;21.01;58.02
9740;BME280;4909;42.680;26.324;2023-04-25T08:54:51;97706.50;;;20.25;60.46
9740;BME280;4909;42.680;26.324;2023-04-25T08:57:19;97692.53;;;20.39;61.55
9740;BME280;4909;42.680;26.324;2023-04-25T08:59:46;97690.59;;;21.03;61.00
9740;BME280;4909;42.680;26.324;2023-04-25T09:02:14;97685.78;;;21.32;58.77
9740;BME280;4909;42.680;26.324;2023-04-25T09:04:44;97690.91;;;21.95;57.61
9740;BME280;4909;42.680;26.324;2023-04-25T09:07:11;97688.34;;;21.93;57.07
9740;BME280;4909;42.680;26.324;2023-04-25T09:09:40;97691.22;;;22.26;55.26
9740;BME280;4909;42.680;26.324;2023-04-25T09:12:07;97694.47;;;22.45;55.41
9740;BME280;4909;42.680;26.324;2023-04-25T09:14:35;97689.00;;;22.21;55.51
9740;BME280;4909;42.680;26.324;2023-04-25T09:17:03;97691.88;;;22.28;55.55
9740;BME280;4909;42.680;26.324;2023-04-25T09:19:31;97691.78;;;22.53;54.97
9740;BME280;4909;42.680;26.324;2023-04-25T09:22:01;97677.97;;;22.73;54.76
9740;BME280;4909;42.680;26.324;2023-04-25T09:24:32;97693.69;;;22.69;53.34
9740;BME280;4909;42.680;26.324;2023-04-25T09:26:59;97684.41;;;22.72;54.53
9740;BME280;4909;42.680;26.324;2023-04-25T09:29:31;97690.03;;;22.94;54.23
9740;BME280;4909;42.680;26.324;2023-04-25T09:32:14;97686.97;;;23.14;53.44
9740;BME280;4909;42.680;26.324;2023-04-25T09:34:43;97671.09;;;22.94;51.22
9740;BME280;4909;42.680;26.324;2023-04-25T09:37:11;97676.66;;;22.93;52.18
9740;BME280;4909;42.680;26.324;2023-04-25T09:39:38;97675.75;;;22.60;51.50
9740;BME280;4909;42.680;26.324;2023-04-25T09:42:05;97680.66;;;22.06;53.35
9740;BME280;4909;42.680;26.324;2023-04-25T09:44:32;97674.06;;;21.75;55.73
9740;BME280;4909;42.680;26.324;2023-04-25T09:46:59;97674.22;;;21.74;55.80
9740;BME280;4909;42.680;26.324;2023-04-25T09:49:28;97675.84;;;22.26;53.93
9740;BME280;4909;42.680;26.324;2023-04-25T09:51:55;97647.13;;;22.33;54.17
9740;BME280;4909;42.680;26.324;2023-04-25T09:54:25;97671.84;;;22.63;52.71
9740;BME280;4909;42.680;26.324;2023-04-25T09:56:52;97653.78;;;22.63;52.02
9740;BME280;4909;42.680;26.324;2023-04-25T09:59:20;97664.97;;;22.76;53.39
9740;BME280;4909;42.680;26.324;2023-04-25T10:01:48;97670.44;;;22.34;53.18
9740;BME280;4909;42.680;26.324;2023-04-25T10:04:19;97660.28;;;22.28;53.93
9740;BME280;4909;42.680;26.324;2023-04-25T10:06:48;97653.03;;;22.37;54.26
9740;BME280;4909;42.680;26.324;2023-04-25T10:09:16;97644.03;;;22.12;54.26
9740;BME280;4909;42.680;26.324;2023-04-25T10:11:47;97646.53;;;22.05;54.83
9740;BME280;4909;42.680;26.324;2023-04-25T10:14:14;97637.81;;;21.86;54.16
9740;BME280;4909;42.680;26.324;2023-04-25T10:16:41;97637.13;;;21.84;56.88
9740;BME280;4909;42.680;26.324;2023-04-25T10:19:09;97632.31;;;21.95;55.12
9740;BME280;4909;42.680;26.324;2023-04-25T10:21:37;97618.75;;;21.87;55.73
9740;BME280;4909;42.680;26.324;2023-04-25T10:24:07;97621.38;;;22.05;55.32
9740;BME280;4909;42.680;26.324;2023-04-25T10:26:34;97620.22;;;22.16;55.73
9740;BME280;4909;42.680;26.324;2023-04-25T10:29:03;97611.97;;;22.41;54.54
9740;BME280;4909;42.680;26.324;2023-04-25T10:31:30;97613.34;;;22.37;53.26
9740;BME280;4909;42.680;26.324;2023-04-25T10:33:57;97613.81;;;22.17;54.02
9740;BME280;4909;42.680;26.324;2023-04-25T10:36:25;97601.47;;;22.06;55.39
9740;BME280;4909;42.680;26.324;2023-04-25T10:38:53;97609.47;;;22.40;54.69
9740;BME280;4909;42.680;26.324;2023-04-25T10:41:20;97605.22;;;22.37;54.19
9740;BME280;4909;42.680;26.324;2023-04-25T10:43:48;97601.50;;;22.30;53.96
9740;BME280;4909;42.680;26.324;2023-04-25T10:46:18;97603.53;;;21.78;54.86
9740;BME280;4909;42.680;26.324;2023-04-25T10:48:50;97584.22;;;21.65;54.78
9740;BME280;4909;42.680;26.324;2023-04-25T10:51:19;97600.38;;;21.91;56.14
9740;BME280;4909;42.680;26.324;2023-04-25T10:53:48;97599.31;;;21.84;54.80
9740;BME280;4909;42.680;26.324;2023-04-25T10:56:24;97595.44;;;21.86;55.10
9740;BME280;4909;42.680;26.324;2023-04-25T10:58:51;97564.44;;;21.48;55.63
9740;BME280;4909;42.680;26.324;2023-04-25T11:01:21;97589.75;;;21.21;56.96
9740;BME280;4909;42.680;26.324;2023-04-25T11:03:57;97586.81;;;21.41;57.24
9740;BME280;4909;42.680;26.324;2023-04-25T11:06:30;97582.88;;;21.69;55.65
9740;BME280;4909;42.680;26.324;2023-04-25T11:09:01;97595.34;;;22.04;54.51
9740;BME280;4909;42.680;26.324;2023-04-25T11:11:28;97573.34;;;21.83;54.50
9740;BME280;4909;42.680;26.324;2023-04-25T11:13:55;97610.31;;;21.82;54.62
9740;BME280;4909;42.680;26.324;2023-04-25T11:16:25;97586.88;;;21.49;56.75
9740;BME280;4909;42.680;26.324;2023-04-25T11:18:51;97609.78;;;21.45;56.54
9740;BME280;4909;42.680;26.324;2023-04-25T11:21:18;97607.41;;;21.42;56.57
9740;BME280;4909;42.680;26.324;2023-04-25T11:23:45;97603.59;;;21.27;55.41
9740;BME280;4909;42.680;26.324;2023-04-25T11:26:12;97617.94;;;21.27;57.00
9740;BME280;4909;42.680;26.324;2023-04-25T11:28:39;97610.81;;;21.44;56.98
9740;BME280;4909;42.680;26.324;2023-04-25T11:31:06;97595.97;;;21.48;56.19
9740;BME280;4909;42.680;26.324;2023-04-25T11:33:36;97602.09;;;21.58;55.73
9740;BME280;4909;42.680;26.324;2023-04-25T11:36:03;97584.84;;;21.51;57.19
9740;BME280;4909;42.680;26.324;2023-04-25T11:38:30;97572.03;;;21.53;56.08
9740;BME280;4909;42.680;26.324;2023-04-25T11:40:57;97583.94;;;21.84;56.46
9740;BME280;4909;42.680;26.324;2023-04-25T11:43:25;97590.56;;;21.90;55.84
9740;BME280;4909;42.680;26.324;2023-04-25T11:45:52;97584.44;;;21.72;54.70
9740;BME280;4909;42.680;26.324;2023-04-25T11:48:19;97568.72;;;21.75;55.27
9740;BME280;4909;42.680;26.324;2023-04-25T11:50:47;97568.38;;;21.70;54.48
9740;BME280;4909;42.680;26.324;2023-04-25T11:53:17;97567.38;;;21.79;55.63
9740;BME280;4909;42.680;26.324;2023-04-25T11:55:44;97568.28;;;21.88;55.36
9740;BME280;4909;42.680;26.324;2023-04-25T11:58:11;97563.34;;;21.75;55.74
9740;BME280;4909;42.680;26.324;2023-04-25T12:00:41;97560.38;;;21.52;55.38
9740;BME280;4909;42.680;26.324;2023-04-25T12:03:09;97542.84;;;21.48;55.13
9740;BME280;4909;42.680;26.324;2023-04-25T12:05:35;97547.97;;;21.67;55.25
9740;BME280;4909;42.680;26.324;2023-04-25T12:08:13;97544.16;;;21.44;53.88
9740;BME280;4909;42.680;26.324;2023-04-25T12:10:42;97548.50;;;21.11;50.76
9740;BME280;4909;42.680;26.324;2023-04-25T12:13:20;97535.84;;;20.52;52.59
9740;BME280;4909;42.680;26.324;2023-04-25T12:15:47;97506.09;;;20.26;54.07
9740;BME280;4909;42.680;26.324;2023-04-25T12:18:14;97525.75;;;20.36;55.41
9740;BME280;4909;42.680;26.324;2023-04-25T12:20:41;97529.59;;;20.34;54.74
9740;BME280;4909;42.680;26.324;2023-04-25T12:23:08;97534.44;;;20.13;53.94
9740;BME280;4909;42.680;26.324;2023-04-25T12:25:39;97538.00;;;20.13;56.79
9740;BME280;4909;42.680;26.324;2023-04-25T12:28:11;97539.22;;;20.01;56.54
9740;BME280;4909;42.680;26.324;2023-04-25T12:30:52;97530.66;;;19.88;54.72
9740;BME280;4909;42.680;26.324;2023-04-25T12:33:20;97531.06;;;19.93;57.13
9740;BME280;4909;42.680;26.324;2023-04-25T12:35:47;97527.72;;;19.81;54.92
9740;BME280;4909;42.680;26.324;2023-04-25T12:38:20;97532.44;;;19.97;56.46
9740;BME280;4909;42.680;26.324;2023-04-25T12:40:49;97523.97;;;19.92;55.68
9740;BME280;4909;42.680;26.324;2023-04-25T12:43:15;97525.22;;;19.80;55.57
9740;BME280;4909;42.680;26.324;2023-04-25T12:45:42;97525.22;;;19.80;56.04
9740;BME280;4909;42.680;26.324;2023-04-25T12:48:09;97513.81;;;19.86;58.33
9740;BME280;4909;42.680;26.324;2023-04-25T12:50:36;97525.59;;;20.03;56.61
9740;BME280;4909;42.680;26.324;2023-04-25T12:53:03;97502.19;;;19.85;55.90
9740;BME280;4909;42.680;26.324;2023-04-25T12:55:30;97517.59;;;19.93;57.69
9740;BME280;4909;42.680;26.324;2023-04-25T12:57:58;97511.69;;;19.89;58.94
9740;BME280;4909;42.680;26.324;2023-04-25T13:00:25;97511.34;;;19.92;59.46
9740;BME280;4909;42.680;26.324;2023-04-25T13:02:51;97464.28;;;19.79;59.98
9740;BME280;4909;42.680;26.324;2023-04-25T13:05:18;97507.66;;;20.11;57.78
9740;BME280;4909;42.680;26.324;2023-04-25T13:07:45;97496.75;;;20.30;59.17
9740;BME280;4909;42.680;26.324;2023-04-25T13:10:12;97492.78;;;20.25;58.94
9740;BME280;4909;42.680;26.324;2023-04-25T13:12:38;97480.88;;;20.27;59.06